sensor_id;sensor_type;location;lat;lon;timestamp;P1;durP1;ratioP1;P2;durP2;ratioP2
23266;SDS011;11802;53.160;8.214;2023-07-29T00:00:46;22.15;;;13.85;;
23266;SDS011;11802;53.160;8.214;2023-07-29T00:03:12;19.10;;;12.32;;
23266;SDS011;11802;53.160;8.214;2023-07-29T00:05:38;18.48;;;13.10;;
23266;SDS011;11802;53.160;8.214;2023-07-29T00:08:04;21.42;;;13.20;;
23266;SDS011;11802;53.160;8.214;2023-07-29T00:10:31;20.85;;;12.32;;
23266;SDS011;11802;53.160;8.214;2023-07-29T00:12:57;22.55;;;14.00;;
23266;SDS011;11802;53.160;8.214;2023-07-29T00:15:22;18.05;;;13.00;;
23266;SDS011;11802;53.160;8.214;2023-07-29T00:17:48;15.43;;;11.57;;
23266;SDS011;11802;53.160;8.214;2023-07-29T00:20:13;17.85;;;12.65;;
23266;SDS011;11802;53.160;8.214;2023-07-29T00:22:39;18.20;;;12.52;;
23266;SDS011;11802;53.160;8.214;2023-07-29T00:25:04;20.08;;;13.93;;
23266;SDS011;11802;53.160;8.214;2023-07-29T00:27:30;20.13;;;13.88;;
23266;SDS011;11802;53.160;8.214;2023-07-29T00:29:56;20.80;;;13.27;;
23266;SDS011;11802;53.160;8.214;2023-07-29T00:32:21;16.67;;;12.30;;
23266;SDS011;11802;53.160;8.214;2023-07-29T00:34:47;18.35;;;12.02;;
23266;SDS011;11802;53.160;8.214;2023-07-29T00:37:12;21.20;;;13.00;;
23266;SDS011;11802;53.160;8.214;2023-07-29T00:39:38;19.63;;;12.38;;
23266;SDS011;11802;53.160;8.214;2023-07-29T00:42:04;20.63;;;12.75;;
23266;SDS011;11802;53.160;8.214;2023-07-29T00:44:30;18.48;;;13.07;;
23266;SDS011;11802;53.160;8.214;2023-07-29T00:46:58;22.63;;;14.43;;
23266;SDS011;11802;53.160;8.214;2023-07-29T00:49:27;23.17;;;14.82;;
23266;SDS011;11802;53.160;8.214;2023-07-29T00:51:53;18.25;;;13.57;;
23266;SDS011;11802;53.160;8.214;2023-07-29T00:54:18;21.42;;;14.45;;
23266;SDS011;11802;53.160;8.214;2023-07-29T00:56:44;20.80;;;14.10;;
23266;SDS011;11802;53.160;8.214;2023-07-29T00:59:10;21.38;;;12.80;;
23266;SDS011;11802;53.160;8.214;2023-07-29T01:01:36;22.05;;;14.68;;
23266;SDS011;11802;53.160;8.214;2023-07-29T01:04:01;21.17;;;14.30;;
23266;SDS011;11802;53.160;8.214;2023-07-29T01:09:05;23.80;;;14.95;;
23266;SDS011;11802;53.160;8.214;2023-07-29T01:14:14;23.77;;;15.82;;
23266;SDS011;11802;53.160;8.214;2023-07-29T01:16:55;20.95;;;14.95;;
23266;SDS011;11802;53.160;8.214;2023-07-29T01:19:36;26.13;;;15.88;;
23266;SDS011;11802;53.160;8.214;2023-07-29T01:22:24;22.10;;;14.85;;
23266;SDS011;11802;53.160;8.214;2023-07-29T01:24:50;23.27;;;14.50;;
23266;SDS011;11802;53.160;8.214;2023-07-29T01:27:16;26.98;;;15.43;;
23266;SDS011;11802;53.160;8.214;2023-07-29T01:29:41;26.52;;;15.65;;
23266;SDS011;11802;53.160;8.214;2023-07-29T01:32:09;24.10;;;15.00;;
23266;SDS011;11802;53.160;8.214;2023-07-29T01:34:41;22.77;;;16.00;;
23266;SDS011;11802;53.160;8.214;2023-07-29T01:37:15;25.45;;;16.63;;
23266;SDS011;11802;53.160;8.214;2023-07-29T01:39:46;26.23;;;16.98;;
23266;SDS011;11802;53.160;8.214;2023-07-29T01:42:13;25.38;;;16.05;;
23266;SDS011;11802;53.160;8.214;2023-07-29T01:44:39;42.72;;;17.85;;
23266;SDS011;11802;53.160;8.214;2023-07-29T01:47:07;28.60;;;18.35;;
23266;SDS011;11802;53.160;8.214;2023-07-29T01:49:33;26.83;;;17.85;;
23266;SDS011;11802;53.160;8.214;2023-07-29T01:51:58;28.92;;;18.35;;
23266;SDS011;11802;53.160;8.214;2023-07-29T01:54:24;25.85;;;16.80;;
23266;SDS011;11802;53.160;8.214;2023-07-29T01:56:50;27.45;;;18.25;;
23266;SDS011;11802;53.160;8.214;2023-07-29T01:59:16;25.75;;;16.85;;
23266;SDS011;11802;53.160;8.214;2023-07-29T02:01:41;23.50;;;16.55;;
23266;SDS011;11802;53.160;8.214;2023-07-29T02:04:07;25.88;;;17.48;;
23266;SDS011;11802;53.160;8.214;2023-07-29T02:06:33;26.98;;;17.73;;
23266;SDS011;11802;53.160;8.214;2023-07-29T02:08:58;27.23;;;18.65;;
23266;SDS011;11802;53.160;8.214;2023-07-29T02:11:24;27.60;;;17.83;;
23266;SDS011;11802;53.160;8.214;2023-07-29T02:13:52;23.73;;;17.58;;
23266;SDS011;11802;53.160;8.214;2023-07-29T02:16:21;30.58;;;18.13;;
23266;SDS011;11802;53.160;8.214;2023-07-29T02:18:47;61.90;;;19.58;;
23266;SDS011;11802;53.160;8.214;2023-07-29T02:21:14;29.45;;;18.63;;
23266;SDS011;11802;53.160;8.214;2023-07-29T02:23:40;22.80;;;16.80;;
23266;SDS011;11802;53.160;8.214;2023-07-29T02:26:06;23.67;;;17.60;;
23266;SDS011;11802;53.160;8.214;2023-07-29T02:28:31;22.25;;;16.27;;
23266;SDS011;11802;53.160;8.214;2023-07-29T02:31:16;21.73;;;17.17;;
23266;SDS011;11802;53.160;8.214;2023-07-29T02:33:49;25.85;;;17.77;;
23266;SDS011;11802;53.160;8.214;2023-07-29T02:36:15;23.90;;;17.52;;
23266;SDS011;11802;53.160;8.214;2023-07-29T02:38:40;20.40;;;17.00;;
23266;SDS011;11802;53.160;8.214;2023-07-29T02:41:07;22.40;;;17.98;;
23266;SDS011;11802;53.160;8.214;2023-07-29T02:43:34;24.75;;;18.60;;
23266;SDS011;11802;53.160;8.214;2023-07-29T02:46:00;21.70;;;17.50;;
23266;SDS011;11802;53.160;8.214;2023-07-29T02:48:27;23.52;;;16.73;;
23266;SDS011;11802;53.160;8.214;2023-07-29T02:50:53;20.80;;;17.17;;
23266;SDS011;11802;53.160;8.214;2023-07-29T02:53:18;21.67;;;17.40;;
23266;SDS011;11802;53.160;8.214;2023-07-29T02:55:44;21.00;;;17.40;;
23266;SDS011;11802;53.160;8.214;2023-07-29T02:58:09;26.05;;;18.23;;
23266;SDS011;11802;53.160;8.214;2023-07-29T03:00:35;23.08;;;18.40;;
23266;SDS011;11802;53.160;8.214;2023-07-29T03:03:00;24.38;;;18.27;;
23266;SDS011;11802;53.160;8.214;2023-07-29T03:05:29;25.60;;;18.38;;
23266;SDS011;11802;53.160;8.214;2023-07-29T03:07:54;23.52;;;18.35;;
23266;SDS011;11802;53.160;8.214;2023-07-29T03:10:20;25.08;;;19.88;;
23266;SDS011;11802;53.160;8.214;2023-07-29T03:12:46;24.50;;;19.23;;
23266;SDS011;11802;53.160;8.214;2023-07-29T03:15:11;24.17;;;19.73;;
23266;SDS011;11802;53.160;8.214;2023-07-29T03:17:37;22.15;;;18.42;;
23266;SDS011;11802;53.160;8.214;2023-07-29T03:20:03;26.50;;;21.48;;
23266;SDS011;11802;53.160;8.214;2023-07-29T03:22:29;24.17;;;19.83;;
23266;SDS011;11802;53.160;8.214;2023-07-29T03:24:55;26.52;;;20.40;;
23266;SDS011;11802;53.160;8.214;2023-07-29T03:27:20;25.17;;;20.88;;
23266;SDS011;11802;53.160;8.214;2023-07-29T03:29:46;27.95;;;20.55;;
23266;SDS011;11802;53.160;8.214;2023-07-29T03:32:12;27.80;;;20.75;;
23266;SDS011;11802;53.160;8.214;2023-07-29T03:34:38;26.00;;;21.67;;
23266;SDS011;11802;53.160;8.214;2023-07-29T03:37:05;26.92;;;20.52;;
23266;SDS011;11802;53.160;8.214;2023-07-29T03:39:30;27.35;;;20.63;;
23266;SDS011;11802;53.160;8.214;2023-07-29T03:41:56;26.83;;;21.33;;
23266;SDS011;11802;53.160;8.214;2023-07-29T03:44:22;25.45;;;19.25;;
23266;SDS011;11802;53.160;8.214;2023-07-29T03:46:48;28.80;;;21.90;;
23266;SDS011;11802;53.160;8.214;2023-07-29T03:49:13;31.88;;;21.85;;
23266;SDS011;11802;53.160;8.214;2023-07-29T03:51:39;27.83;;;21.10;;
23266;SDS011;11802;53.160;8.214;2023-07-29T03:54:04;27.40;;;21.45;;
23266;SDS011;11802;53.160;8.214;2023-07-29T03:56:30;24.98;;;19.83;;
23266;SDS011;11802;53.160;8.214;2023-07-29T03:59:05;25.85;;;21.10;;
23266;SDS011;11802;53.160;8.214;2023-07-29T04:01:31;27.08;;;21.17;;
23266;SDS011;11802;53.160;8.214;2023-07-29T04:03:57;27.48;;;21.05;;
23266;SDS011;11802;53.160;8.214;2023-07-29T04:06:23;29.27;;;20.05;;
23266;SDS011;11802;53.160;8.214;2023-07-29T04:08:49;26.25;;;20.60;;
23266;SDS011;11802;53.160;8.214;2023-07-29T04:11:14;30.17;;;22.30;;
23266;SDS011;11802;53.160;8.214;2023-07-29T04:13:40;24.92;;;19.80;;
23266;SDS011;11802;53.160;8.214;2023-07-29T04:16:06;26.30;;;21.42;;
23266;SDS011;11802;53.160;8.214;2023-07-29T04:18:32;28.00;;;22.52;;
23266;SDS011;11802;53.160;8.214;2023-07-29T04:20:57;28.88;;;20.95;;
23266;SDS011;11802;53.160;8.214;2023-07-29T04:23:23;33.05;;;22.42;;
23266;SDS011;11802;53.160;8.214;2023-07-29T04:25:48;28.52;;;21.90;;
23266;SDS011;11802;53.160;8.214;2023-07-29T04:28:15;31.50;;;22.55;;
23266;SDS011;11802;53.160;8.214;2023-07-29T04:30:40;29.02;;;22.13;;
23266;SDS011;11802;53.160;8.214;2023-07-29T04:33:06;31.95;;;22.45;;
23266;SDS011;11802;53.160;8.214;2023-07-29T04:35:31;34.55;;;22.50;;
23266;SDS011;11802;53.160;8.214;2023-07-29T04:37:57;26.20;;;20.80;;
23266;SDS011;11802;53.160;8.214;2023-07-29T04:40:22;33.38;;;23.83;;
23266;SDS011;11802;53.160;8.214;2023-07-29T04:42:48;34.35;;;23.10;;
23266;SDS011;11802;53.160;8.214;2023-07-29T04:45:14;34.88;;;23.67;;
23266;SDS011;11802;53.160;8.214;2023-07-29T04:47:41;32.70;;;22.75;;
23266;SDS011;11802;53.160;8.214;2023-07-29T04:50:06;30.90;;;22.67;;
23266;SDS011;11802;53.160;8.214;2023-07-29T04:52:32;32.60;;;23.23;;
23266;SDS011;11802;53.160;8.214;2023-07-29T04:54:58;33.40;;;23.00;;
23266;SDS011;11802;53.160;8.214;2023-07-29T04:57:23;31.95;;;21.48;;
23266;SDS011;11802;53.160;8.214;2023-07-29T04:59:49;29.77;;;22.77;;
23266;SDS011;11802;53.160;8.214;2023-07-29T05:02:14;29.98;;;21.73;;
23266;SDS011;11802;53.160;8.214;2023-07-29T05:04:40;33.38;;;23.77;;
23266;SDS011;11802;53.160;8.214;2023-07-29T05:07:06;29.80;;;21.40;;
23266;SDS011;11802;53.160;8.214;2023-07-29T05:09:31;31.73;;;21.80;;
23266;SDS011;11802;53.160;8.214;2023-07-29T05:11:57;31.20;;;21.20;;
23266;SDS011;11802;53.160;8.214;2023-07-29T05:14:22;29.40;;;20.25;;
23266;SDS011;11802;53.160;8.214;2023-07-29T05:16:48;26.98;;;19.13;;
23266;SDS011;11802;53.160;8.214;2023-07-29T05:19:14;28.02;;;18.67;;
23266;SDS011;11802;53.160;8.214;2023-07-29T05:21:39;22.55;;;18.20;;
23266;SDS011;11802;53.160;8.214;2023-07-29T05:24:05;26.60;;;18.35;;
23266;SDS011;11802;53.160;8.214;2023-07-29T05:26:31;24.05;;;18.05;;
23266;SDS011;11802;53.160;8.214;2023-07-29T05:28:56;21.73;;;16.63;;
23266;SDS011;11802;53.160;8.214;2023-07-29T05:31:22;24.08;;;17.48;;
23266;SDS011;11802;53.160;8.214;2023-07-29T05:33:48;24.40;;;17.83;;
23266;SDS011;11802;53.160;8.214;2023-07-29T05:36:13;22.40;;;18.40;;
23266;SDS011;11802;53.160;8.214;2023-07-29T05:38:39;23.42;;;17.77;;
23266;SDS011;11802;53.160;8.214;2023-07-29T05:41:05;20.58;;;16.48;;
23266;SDS011;11802;53.160;8.214;2023-07-29T05:43:30;21.35;;;17.80;;
23266;SDS011;11802;53.160;8.214;2023-07-29T05:45:56;22.67;;;17.50;;
23266;SDS011;11802;53.160;8.214;2023-07-29T05:48:21;21.42;;;16.10;;
23266;SDS011;11802;53.160;8.214;2023-07-29T05:50:47;20.73;;;16.48;;
23266;SDS011;11802;53.160;8.214;2023-07-29T05:53:13;21.85;;;17.27;;
23266;SDS011;11802;53.160;8.214;2023-07-29T05:55:39;21.83;;;17.13;;
23266;SDS011;11802;53.160;8.214;2023-07-29T05:58:05;22.23;;;16.35;;
23266;SDS011;11802;53.160;8.214;2023-07-29T06:00:30;20.90;;;15.13;;
23266;SDS011;11802;53.160;8.214;2023-07-29T06:02:56;18.15;;;13.63;;
23266;SDS011;11802;53.160;8.214;2023-07-29T06:05:22;19.30;;;14.38;;
23266;SDS011;11802;53.160;8.214;2023-07-29T06:07:47;18.08;;;15.13;;
23266;SDS011;11802;53.160;8.214;2023-07-29T06:10:13;19.05;;;14.90;;
23266;SDS011;11802;53.160;8.214;2023-07-29T06:12:47;18.50;;;14.50;;
23266;SDS011;11802;53.160;8.214;2023-07-29T06:15:12;16.15;;;12.73;;
23266;SDS011;11802;53.160;8.214;2023-07-29T06:17:38;17.20;;;13.13;;
23266;SDS011;11802;53.160;8.214;2023-07-29T06:20:05;18.85;;;13.50;;
23266;SDS011;11802;53.160;8.214;2023-07-29T06:22:31;18.30;;;13.82;;
23266;SDS011;11802;53.160;8.214;2023-07-29T06:24:57;17.63;;;12.88;;
23266;SDS011;11802;53.160;8.214;2023-07-29T06:27:23;13.82;;;11.05;;
23266;SDS011;11802;53.160;8.214;2023-07-29T06:29:50;17.23;;;12.90;;
23266;SDS011;11802;53.160;8.214;2023-07-29T06:32:16;15.52;;;11.95;;
23266;SDS011;11802;53.160;8.214;2023-07-29T06:34:41;17.55;;;11.82;;
23266;SDS011;11802;53.160;8.214;2023-07-29T06:37:07;13.85;;;11.05;;
23266;SDS011;11802;53.160;8.214;2023-07-29T06:39:32;15.88;;;11.52;;
23266;SDS011;11802;53.160;8.214;2023-07-29T06:41:58;16.95;;;11.23;;
23266;SDS011;11802;53.160;8.214;2023-07-29T06:44:23;18.02;;;11.48;;
23266;SDS011;11802;53.160;8.214;2023-07-29T06:46:49;13.27;;;10.48;;
23266;SDS011;11802;53.160;8.214;2023-07-29T06:49:14;16.48;;;11.45;;
23266;SDS011;11802;53.160;8.214;2023-07-29T06:51:40;17.35;;;11.07;;
23266;SDS011;11802;53.160;8.214;2023-07-29T06:54:05;16.30;;;10.45;;
23266;SDS011;11802;53.160;8.214;2023-07-29T06:56:31;13.50;;;9.70;;
23266;SDS011;11802;53.160;8.214;2023-07-29T06:58:56;14.57;;;9.48;;
23266;SDS011;11802;53.160;8.214;2023-07-29T07:01:22;11.43;;;8.70;;
23266;SDS011;11802;53.160;8.214;2023-07-29T07:03:47;14.32;;;9.18;;
23266;SDS011;11802;53.160;8.214;2023-07-29T07:06:13;11.23;;;8.30;;
23266;SDS011;11802;53.160;8.214;2023-07-29T07:08:38;11.70;;;8.43;;
23266;SDS011;11802;53.160;8.214;2023-07-29T07:11:04;13.15;;;8.10;;
23266;SDS011;11802;53.160;8.214;2023-07-29T07:13:29;12.98;;;8.18;;
23266;SDS011;11802;53.160;8.214;2023-07-29T07:15:55;10.38;;;7.60;;
23266;SDS011;11802;53.160;8.214;2023-07-29T07:18:21;10.15;;;6.85;;
23266;SDS011;11802;53.160;8.214;2023-07-29T07:20:50;9.27;;;7.15;;
23266;SDS011;11802;53.160;8.214;2023-07-29T07:23:16;10.98;;;7.75;;
23266;SDS011;11802;53.160;8.214;2023-07-29T07:25:46;10.15;;;6.53;;
23266;SDS011;11802;53.160;8.214;2023-07-29T07:28:11;8.10;;;6.03;;
23266;SDS011;11802;53.160;8.214;2023-07-29T07:30:40;10.20;;;6.45;;
23266;SDS011;11802;53.160;8.214;2023-07-29T07:33:06;9.68;;;6.38;;
23266;SDS011;11802;53.160;8.214;2023-07-29T07:35:32;12.85;;;6.45;;
23266;SDS011;11802;53.160;8.214;2023-07-29T07:37:59;9.07;;;5.95;;
23266;SDS011;11802;53.160;8.214;2023-07-29T07:40:26;9.38;;;6.20;;
23266;SDS011;11802;53.160;8.214;2023-07-29T07:42:52;9.13;;;5.88;;
23266;SDS011;11802;53.160;8.214;2023-07-29T07:45:18;8.88;;;5.70;;
23266;SDS011;11802;53.160;8.214;2023-07-29T07:47:44;8.50;;;5.45;;
23266;SDS011;11802;53.160;8.214;2023-07-29T07:50:10;8.73;;;5.65;;
23266;SDS011;11802;53.160;8.214;2023-07-29T07:52:35;8.55;;;6.10;;
23266;SDS011;11802;53.160;8.214;2023-07-29T07:55:01;9.02;;;5.65;;
23266;SDS011;11802;53.160;8.214;2023-07-29T07:57:27;9.15;;;5.80;;
23266;SDS011;11802;53.160;8.214;2023-07-29T07:59:52;9.10;;;5.40;;
23266;SDS011;11802;53.160;8.214;2023-07-29T08:02:18;10.02;;;5.63;;
23266;SDS011;11802;53.160;8.214;2023-07-29T08:04:43;9.85;;;5.53;;
23266;SDS011;11802;53.160;8.214;2023-07-29T08:07:09;7.30;;;5.32;;
23266;SDS011;11802;53.160;8.214;2023-07-29T08:09:35;9.50;;;4.43;;
23266;SDS011;11802;53.160;8.214;2023-07-29T08:12:00;10.48;;;4.53;;
23266;SDS011;11802;53.160;8.214;2023-07-29T08:14:26;8.65;;;4.95;;
23266;SDS011;11802;53.160;8.214;2023-07-29T08:16:51;9.60;;;4.32;;
23266;SDS011;11802;53.160;8.214;2023-07-29T08:19:17;5.20;;;3.42;;
23266;SDS011;11802;53.160;8.214;2023-07-29T08:21:43;7.90;;;4.13;;
23266;SDS011;11802;53.160;8.214;2023-07-29T08:24:08;6.10;;;3.95;;
23266;SDS011;11802;53.160;8.214;2023-07-29T08:26:34;6.28;;;4.22;;
23266;SDS011;11802;53.160;8.214;2023-07-29T08:28:59;7.60;;;4.20;;
23266;SDS011;11802;53.160;8.214;2023-07-29T08:31:25;7.22;;;3.85;;
23266;SDS011;11802;53.160;8.214;2023-07-29T08:33:50;6.68;;;3.78;;
23266;SDS011;11802;53.160;8.214;2023-07-29T08:36:16;8.15;;;3.72;;
23266;SDS011;11802;53.160;8.214;2023-07-29T08:38:41;6.13;;;3.17;;
23266;SDS011;11802;53.160;8.214;2023-07-29T08:41:14;6.15;;;3.85;;
23266;SDS011;11802;53.160;8.214;2023-07-29T08:44:05;6.13;;;3.78;;
23266;SDS011;11802;53.160;8.214;2023-07-29T08:46:38;7.47;;;3.67;;
23266;SDS011;11802;53.160;8.214;2023-07-29T08:49:04;7.72;;;4.00;;
23266;SDS011;11802;53.160;8.214;2023-07-29T08:51:30;7.88;;;3.95;;
23266;SDS011;11802;53.160;8.214;2023-07-29T08:53:56;9.52;;;4.80;;
23266;SDS011;11802;53.160;8.214;2023-07-29T08:56:24;7.63;;;4.22;;
23266;SDS011;11802;53.160;8.214;2023-07-29T08:58:49;7.13;;;4.28;;
23266;SDS011;11802;53.160;8.214;2023-07-29T09:01:15;10.27;;;5.03;;
23266;SDS011;11802;53.160;8.214;2023-07-29T09:03:41;10.23;;;4.78;;
23266;SDS011;11802;53.160;8.214;2023-07-29T09:06:07;6.72;;;4.25;;
23266;SDS011;11802;53.160;8.214;2023-07-29T09:08:33;5.82;;;3.90;;
23266;SDS011;11802;53.160;8.214;2023-07-29T09:10:59;7.95;;;4.25;;
23266;SDS011;11802;53.160;8.214;2023-07-29T09:13:25;6.10;;;3.63;;
23266;SDS011;11802;53.160;8.214;2023-07-29T09:15:53;4.93;;;3.47;;
23266;SDS011;11802;53.160;8.214;2023-07-29T09:18:21;7.60;;;3.70;;
23266;SDS011;11802;53.160;8.214;2023-07-29T09:20:47;6.32;;;3.58;;
23266;SDS011;11802;53.160;8.214;2023-07-29T09:23:13;5.55;;;3.30;;
23266;SDS011;11802;53.160;8.214;2023-07-29T09:25:39;5.03;;;3.08;;
23266;SDS011;11802;53.160;8.214;2023-07-29T09:28:15;4.47;;;2.45;;
23266;SDS011;11802;53.160;8.214;2023-07-29T09:30:42;3.50;;;2.20;;
23266;SDS011;11802;53.160;8.214;2023-07-29T09:33:10;7.30;;;2.17;;
23266;SDS011;11802;53.160;8.214;2023-07-29T09:35:36;5.35;;;2.05;;
23266;SDS011;11802;53.160;8.214;2023-07-29T09:38:03;4.22;;;2.00;;
23266;SDS011;11802;53.160;8.214;2023-07-29T09:40:36;3.72;;;1.83;;
23266;SDS011;11802;53.160;8.214;2023-07-29T09:43:03;6.65;;;1.80;;
23266;SDS011;11802;53.160;8.214;2023-07-29T09:45:30;5.03;;;1.60;;
23266;SDS011;11802;53.160;8.214;2023-07-29T09:47:58;2.63;;;1.55;;
23266;SDS011;11802;53.160;8.214;2023-07-29T09:50:25;2.95;;;1.70;;
23266;SDS011;11802;53.160;8.214;2023-07-29T09:52:51;6.80;;;1.75;;
23266;SDS011;11802;53.160;8.214;2023-07-29T09:55:19;3.22;;;1.55;;
23266;SDS011;11802;53.160;8.214;2023-07-29T09:57:46;2.80;;;1.60;;
23266;SDS011;11802;53.160;8.214;2023-07-29T10:00:11;3.85;;;1.58;;
23266;SDS011;11802;53.160;8.214;2023-07-29T10:02:39;5.05;;;1.60;;
23266;SDS011;11802;53.160;8.214;2023-07-29T10:05:06;3.45;;;1.60;;
23266;SDS011;11802;53.160;8.214;2023-07-29T10:07:33;2.67;;;1.52;;
23266;SDS011;11802;53.160;8.214;2023-07-29T10:10:03;3.45;;;1.70;;
23266;SDS011;11802;53.160;8.214;2023-07-29T10:12:30;3.25;;;1.40;;
23266;SDS011;11802;53.160;8.214;2023-07-29T10:14:58;4.03;;;1.90;;
23266;SDS011;11802;53.160;8.214;2023-07-29T10:17:26;3.97;;;1.90;;
23266;SDS011;11802;53.160;8.214;2023-07-29T10:19:52;2.95;;;1.50;;
23266;SDS011;11802;53.160;8.214;2023-07-29T10:22:20;3.50;;;1.80;;
23266;SDS011;11802;53.160;8.214;2023-07-29T10:24:46;4.85;;;1.73;;
23266;SDS011;11802;53.160;8.214;2023-07-29T10:27:13;2.95;;;1.60;;
23266;SDS011;11802;53.160;8.214;2023-07-29T10:29:42;2.90;;;1.60;;
23266;SDS011;11802;53.160;8.214;2023-07-29T10:32:10;2.97;;;1.67;;
23266;SDS011;11802;53.160;8.214;2023-07-29T10:34:36;2.75;;;1.60;;
23266;SDS011;11802;53.160;8.214;2023-07-29T10:37:03;3.03;;;1.80;;
23266;SDS011;11802;53.160;8.214;2023-07-29T10:39:37;3.22;;;1.33;;
23266;SDS011;11802;53.160;8.214;2023-07-29T10:42:05;4.18;;;1.77;;
23266;SDS011;11802;53.160;8.214;2023-07-29T10:49:44;2.85;;;1.67;;
23266;SDS011;11802;53.160;8.214;2023-07-29T10:55:00;3.05;;;1.83;;
23266;SDS011;11802;53.160;8.214;2023-07-29T10:57:35;3.45;;;1.80;;
23266;SDS011;11802;53.160;8.214;2023-07-29T11:00:07;3.10;;;1.50;;
23266;SDS011;11802;53.160;8.214;2023-07-29T11:02:37;3.20;;;1.60;;
23266;SDS011;11802;53.160;8.214;2023-07-29T11:05:07;2.72;;;1.60;;
23266;SDS011;11802;53.160;8.214;2023-07-29T11:07:47;6.63;;;1.98;;
23266;SDS011;11802;53.160;8.214;2023-07-29T11:10:13;4.35;;;2.00;;
23266;SDS011;11802;53.160;8.214;2023-07-29T11:12:49;4.40;;;2.20;;
23266;SDS011;11802;53.160;8.214;2023-07-29T11:15:23;3.40;;;1.92;;
23266;SDS011;11802;53.160;8.214;2023-07-29T11:20:18;3.45;;;2.00;;
23266;SDS011;11802;53.160;8.214;2023-07-29T11:22:52;5.53;;;2.20;;
23266;SDS011;11802;53.160;8.214;2023-07-29T11:25:19;4.28;;;1.83;;
23266;SDS011;11802;53.160;8.214;2023-07-29T11:27:46;3.72;;;1.80;;
23266;SDS011;11802;53.160;8.214;2023-07-29T11:30:12;3.22;;;1.75;;
23266;SDS011;11802;53.160;8.214;2023-07-29T11:32:39;3.65;;;1.80;;
23266;SDS011;11802;53.160;8.214;2023-07-29T11:35:06;3.53;;;1.80;;
23266;SDS011;11802;53.160;8.214;2023-07-29T11:37:36;6.05;;;2.05;;
23266;SDS011;11802;53.160;8.214;2023-07-29T11:40:03;6.45;;;2.10;;
23266;SDS011;11802;53.160;8.214;2023-07-29T11:42:31;3.65;;;1.88;;
23266;SDS011;11802;53.160;8.214;2023-07-29T11:44:58;3.28;;;2.15;;
23266;SDS011;11802;53.160;8.214;2023-07-29T11:47:23;4.50;;;2.00;;
23266;SDS011;11802;53.160;8.214;2023-07-29T11:49:49;5.07;;;2.17;;
23266;SDS011;11802;53.160;8.214;2023-07-29T11:52:15;3.42;;;2.00;;
23266;SDS011;11802;53.160;8.214;2023-07-29T11:54:45;4.55;;;2.10;;
23266;SDS011;11802;53.160;8.214;2023-07-29T11:57:12;4.32;;;1.90;;
23266;SDS011;11802;53.160;8.214;2023-07-29T11:59:39;5.70;;;1.77;;
23266;SDS011;11802;53.160;8.214;2023-07-29T12:02:06;2.70;;;1.33;;
23266;SDS011;11802;53.160;8.214;2023-07-29T12:04:36;4.53;;;1.88;;
23266;SDS011;11802;53.160;8.214;2023-07-29T12:07:03;6.05;;;1.73;;
23266;SDS011;11802;53.160;8.214;2023-07-29T12:09:29;3.28;;;1.50;;
23266;SDS011;11802;53.160;8.214;2023-07-29T12:11:55;5.10;;;1.65;;
23266;SDS011;11802;53.160;8.214;2023-07-29T12:14:21;2.10;;;1.48;;
23266;SDS011;11802;53.160;8.214;2023-07-29T12:16:47;5.97;;;1.63;;
23266;SDS011;11802;53.160;8.214;2023-07-29T12:19:14;5.90;;;1.70;;
23266;SDS011;11802;53.160;8.214;2023-07-29T12:21:42;4.53;;;1.50;;
23266;SDS011;11802;53.160;8.214;2023-07-29T12:24:07;3.03;;;1.60;;
23266;SDS011;11802;53.160;8.214;2023-07-29T12:26:33;3.95;;;1.65;;
23266;SDS011;11802;53.160;8.214;2023-07-29T12:29:10;3.88;;;1.80;;
23266;SDS011;11802;53.160;8.214;2023-07-29T12:31:40;4.63;;;1.60;;
23266;SDS011;11802;53.160;8.214;2023-07-29T12:34:06;3.10;;;1.58;;
23266;SDS011;11802;53.160;8.214;2023-07-29T12:36:42;1.75;;;1.30;;
23266;SDS011;11802;53.160;8.214;2023-07-29T12:41:46;3.17;;;1.40;;
23266;SDS011;11802;53.160;8.214;2023-07-29T12:44:13;2.83;;;1.73;;
23266;SDS011;11802;53.160;8.214;2023-07-29T12:46:38;2.70;;;1.60;;
23266;SDS011;11802;53.160;8.214;2023-07-29T12:49:04;4.13;;;1.33;;
23266;SDS011;11802;53.160;8.214;2023-07-29T12:51:29;2.00;;;1.35;;
23266;SDS011;11802;53.160;8.214;2023-07-29T12:53:55;3.25;;;1.17;;
23266;SDS011;11802;53.160;8.214;2023-07-29T12:56:21;3.65;;;1.27;;
23266;SDS011;11802;53.160;8.214;2023-07-29T12:58:46;2.78;;;1.52;;
23266;SDS011;11802;53.160;8.214;2023-07-29T13:01:12;3.80;;;1.52;;
23266;SDS011;11802;53.160;8.214;2023-07-29T13:03:42;2.20;;;1.10;;
23266;SDS011;11802;53.160;8.214;2023-07-29T13:06:07;3.03;;;1.42;;
23266;SDS011;11802;53.160;8.214;2023-07-29T13:08:33;3.60;;;1.20;;
23266;SDS011;11802;53.160;8.214;2023-07-29T13:10:58;3.40;;;1.30;;
23266;SDS011;11802;53.160;8.214;2023-07-29T13:13:24;4.47;;;1.15;;
23266;SDS011;11802;53.160;8.214;2023-07-29T13:15:49;2.35;;;1.27;;
23266;SDS011;11802;53.160;8.214;2023-07-29T13:18:15;3.40;;;1.55;;
23266;SDS011;11802;53.160;8.214;2023-07-29T13:20:40;3.13;;;1.35;;
23266;SDS011;11802;53.160;8.214;2023-07-29T13:23:06;3.97;;;1.15;;
23266;SDS011;11802;53.160;8.214;2023-07-29T13:25:31;2.55;;;1.38;;
23266;SDS011;11802;53.160;8.214;2023-07-29T13:27:57;2.15;;;1.30;;
23266;SDS011;11802;53.160;8.214;2023-07-29T13:30:22;2.53;;;1.40;;
23266;SDS011;11802;53.160;8.214;2023-07-29T13:32:48;3.00;;;1.40;;
23266;SDS011;11802;53.160;8.214;2023-07-29T13:35:13;4.60;;;1.58;;
23266;SDS011;11802;53.160;8.214;2023-07-29T13:37:39;2.38;;;1.42;;
23266;SDS011;11802;53.160;8.214;2023-07-29T13:40:05;2.05;;;1.48;;
23266;SDS011;11802;53.160;8.214;2023-07-29T13:42:31;4.65;;;1.85;;
23266;SDS011;11802;53.160;8.214;2023-07-29T13:44:56;2.80;;;1.40;;
23266;SDS011;11802;53.160;8.214;2023-07-29T13:47:22;3.28;;;1.60;;
23266;SDS011;11802;53.160;8.214;2023-07-29T13:49:47;6.13;;;2.00;;
23266;SDS011;11802;53.160;8.214;2023-07-29T13:52:13;2.65;;;1.40;;
23266;SDS011;11802;53.160;8.214;2023-07-29T13:54:39;4.43;;;1.90;;
23266;SDS011;11802;53.160;8.214;2023-07-29T13:57:05;5.32;;;1.98;;
23266;SDS011;11802;53.160;8.214;2023-07-29T13:59:31;4.88;;;1.70;;
23266;SDS011;11802;53.160;8.214;2023-07-29T14:01:57;5.72;;;1.95;;
23266;SDS011;11802;53.160;8.214;2023-07-29T14:04:22;3.53;;;1.80;;
23266;SDS011;11802;53.160;8.214;2023-07-29T14:06:48;4.55;;;1.90;;
23266;SDS011;11802;53.160;8.214;2023-07-29T14:09:14;4.28;;;2.00;;
23266;SDS011;11802;53.160;8.214;2023-07-29T14:11:39;5.82;;;1.98;;
23266;SDS011;11802;53.160;8.214;2023-07-29T14:14:05;4.63;;;2.30;;
23266;SDS011;11802;53.160;8.214;2023-07-29T14:16:30;3.53;;;2.03;;
23266;SDS011;11802;53.160;8.214;2023-07-29T14:18:56;4.82;;;2.10;;
23266;SDS011;11802;53.160;8.214;2023-07-29T14:21:21;6.45;;;2.35;;
23266;SDS011;11802;53.160;8.214;2023-07-29T14:23:46;3.80;;;2.50;;
23266;SDS011;11802;53.160;8.214;2023-07-29T14:26:12;4.00;;;2.20;;
23266;SDS011;11802;53.160;8.214;2023-07-29T14:28:37;4.45;;;2.42;;
23266;SDS011;11802;53.160;8.214;2023-07-29T14:31:03;4.45;;;2.25;;
23266;SDS011;11802;53.160;8.214;2023-07-29T14:33:28;4.38;;;2.42;;
23266;SDS011;11802;53.160;8.214;2023-07-29T14:35:57;4.28;;;2.25;;
23266;SDS011;11802;53.160;8.214;2023-07-29T14:38:22;3.58;;;2.15;;
23266;SDS011;11802;53.160;8.214;2023-07-29T14:40:48;3.97;;;2.15;;
23266;SDS011;11802;53.160;8.214;2023-07-29T14:43:16;3.92;;;2.25;;
23266;SDS011;11802;53.160;8.214;2023-07-29T14:45:41;4.28;;;1.98;;
23266;SDS011;11802;53.160;8.214;2023-07-29T14:48:07;5.05;;;2.30;;
23266;SDS011;11802;53.160;8.214;2023-07-29T14:50:32;5.35;;;2.05;;